Time;durP1;ratioP1;P1;durP2;ratioP2;P2;SDS_P1;SDS_P2;PMS_P1;PMS_P2;Temp;Humidity;BMP_temperature;BMP_pressure;BME280_temperature;BME280_humidity;BME280_pressure;Samples;Min_cycle;Max_cycle;Signal;HPM_P1;HPM_P2
2021/12/26 00:01:36;;;;;;;44.10;40.30;;;5.90;99.90;;;;;;5111459;28;20471;-83
2021/12/26 00:04:04;;;;;;;43.73;39.93;;;5.90;99.90;;;;;;5111528;28;20960;-84
2021/12/26 00:06:30;;;;;;;43.33;39.63;;;5.90;99.90;;;;;;5112075;28;20885;-83
2021/12/26 00:08:59;;;;;;;43.37;39.93;;;5.90;99.90;;;;;;5111608;28;20455;-84
2021/12/26 00:11:27;;;;;;;44.07;40.50;;;6.00;99.90;;;;;;5112013;28;20450;-84
2021/12/26 00:13:55;;;;;;;44.40;40.67;;;6.00;99.90;;;;;;5111800;28;20490;-84
2021/12/26 00:16:22;;;;;;;43.73;40.03;;;6.00;99.90;;;;;;5111295;28;20508;-82
2021/12/26 00:18:49;;;;;;;43.20;39.60;;;6.00;99.90;;;;;;5111661;28;20454;-82
2021/12/26 00:21:19;;;;;;;41.83;38.13;;;5.90;99.90;;;;;;5111174;28;20451;-82
2021/12/26 00:23:47;;;;;;;41.90;38.40;;;5.80;99.90;;;;;;5111503;28;20862;-83
2021/12/26 00:26:14;;;;;;;42.97;39.17;;;5.80;99.90;;;;;;5111219;28;20449;-83
2021/12/26 00:28:42;;;;;;;41.93;38.30;;;5.70;99.90;;;;;;5111119;28;20508;-82
2021/12/26 00:31:09;;;;;;;43.30;39.30;;;5.70;99.90;;;;;;5111227;28;20463;-83
2021/12/26 00:33:38;;;;;;;45.27;41.27;;;5.60;99.90;;;;;;5110975;28;20468;-83
2021/12/26 00:36:05;;;;;;;41.20;38.00;;;5.70;99.90;;;;;;5112598;28;21081;-82
2021/12/26 00:38:32;;;;;;;41.90;38.40;;;5.80;99.90;;;;;;5122519;28;20446;-81
2021/12/26 00:40:59;;;;;;;43.93;39.90;;;5.80;99.90;;;;;;5131596;28;20543;-81
2021/12/26 00:43:26;;;;;;;43.10;39.10;;;5.80;99.90;;;;;;5131310;28;21118;-82
2021/12/26 00:45:54;;;;;;;44.33;40.27;;;5.80;99.90;;;;;;5131521;28;20512;-82
2021/12/26 00:48:21;;;;;;;39.63;36.70;;;5.70;99.90;;;;;;5131727;28;20459;-80
2021/12/26 00:50:48;;;;;;;43.07;39.30;;;5.70;99.90;;;;;;5131947;28;20448;-80
2021/12/26 00:53:15;;;;;;;41.33;37.60;;;5.80;99.90;;;;;;5131298;28;20445;-80
2021/12/26 00:55:42;;;;;;;42.87;39.47;;;5.70;99.90;;;;;;5131390;28;20533;-80
2021/12/26 00:58:09;;;;;;;40.87;37.50;;;5.70;99.90;;;;;;5131294;28;20461;-80
2021/12/26 01:00:40;;;;;;;40.23;37.13;;;5.80;99.90;;;;;;5131533;28;20447;-82
2021/12/26 01:03:09;;;;;;;39.20;36.23;;;5.70;99.90;;;;;;5131009;28;20453;-82
2021/12/26 01:05:40;;;;;;;40.50;36.90;;;5.70;99.90;;;;;;5131565;28;20451;-82
2021/12/26 01:08:09;;;;;;;39.83;36.70;;;5.80;99.90;;;;;;5131477;28;20806;-79
2021/12/26 01:10:40;;;;;;;39.97;36.87;;;5.80;99.90;;;;;;5131196;28;20930;-84
2021/12/26 01:13:14;;;;;;;39.10;35.80;;;5.70;99.90;;;;;;5134330;27;20457;-84
2021/12/26 01:15:41;;;;;;;40.20;36.90;;;5.70;99.90;;;;;;5135609;27;20477;-84
2021/12/26 01:18:10;;;;;;;39.20;36.10;;;5.70;99.90;;;;;;5135427;27;20450;-88
2021/12/26 01:20:49;;;;;;;40.47;37.37;;;5.70;99.90;;;;;;5135253;27;20458;-80
2021/12/26 01:23:19;;;;;;;43.57;40.37;;;5.80;99.90;;;;;;5135360;27;20433;-80
2021/12/26 01:25:46;;;;;;;42.73;39.43;;;5.70;99.90;;;;;;5135210;27;20441;-80
2021/12/26 01:28:14;;;;;;;42.40;39.07;;;5.70;99.90;;;;;;5135034;27;20456;-80
2021/12/26 01:30:41;;;;;;;41.13;38.17;;;5.70;99.90;;;;;;5134761;27;20482;-80
2021/12/26 01:33:11;;;;;;;43.23;39.67;;;5.60;99.90;;;;;;5135301;27;20437;-81
2021/12/26 01:35:38;;;;;;;42.80;39.50;;;5.70;99.90;;;;;;5134928;27;20493;-81
2021/12/26 01:38:06;;;;;;;41.53;38.10;;;5.70;99.90;;;;;;5134758;27;20453;-79
2021/12/26 01:40:36;;;;;;;41.03;37.80;;;5.80;99.90;;;;;;5135136;27;20451;-81
2021/12/26 01:43:03;;;;;;;42.83;39.23;;;5.80;99.90;;;;;;5135276;27;20453;-77
2021/12/26 01:45:31;;;;;;;41.63;38.47;;;5.70;99.90;;;;;;5134819;27;20445;-75
2021/12/26 01:47:59;;;;;;;41.23;38.30;;;5.70;99.90;;;;;;5134499;27;20453;-76
2021/12/26 01:50:28;;;;;;;45.27;41.50;;;5.70;99.90;;;;;;5134278;27;20529;-76
2021/12/26 01:52:55;;;;;;;43.40;39.40;;;5.70;99.90;;;;;;5134828;27;20462;-76
2021/12/26 01:55:25;;;;;;;40.50;37.27;;;5.80;99.90;;;;;;5134572;27;20507;-79
2021/12/26 01:57:53;;;;;;;44.20;40.33;;;5.70;99.90;;;;;;5134173;27;20480;-78
2021/12/26 02:00:21;;;;;;;41.93;38.50;;;5.70;99.90;;;;;;5134387;27;20454;-77
2021/12/26 02:02:49;;;;;;;40.67;37.40;;;5.70;99.90;;;;;;5134327;27;20474;-78
2021/12/26 02:05:17;;;;;;;44.87;41.20;;;5.70;99.90;;;;;;5134354;27;20447;-78
2021/12/26 02:07:45;;;;;;;40.17;36.90;;;5.60;99.90;;;;;;5134272;27;20453;-77
2021/12/26 02:10:12;;;;;;;41.03;38.00;;;5.70;99.90;;;;;;5133915;27;20453;-78
2021/12/26 02:12:39;;;;;;;41.90;38.70;;;5.80;99.90;;;;;;5134240;27;20443;-79
2021/12/26 02:15:06;;;;;;;41.30;38.10;;;5.80;99.90;;;;;;5134271;27;20487;-79
2021/12/26 02:17:33;;;;;;;40.07;37.07;;;5.80;99.90;;;;;;5134364;27;20932;-79
2021/12/26 02:20:41;;;;;;;41.77;38.60;;;5.80;99.90;;;;;;5134152;27;20450;-79
2021/12/26 02:23:13;;;;;;;41.50;38.30;;;5.70;99.90;;;;;;5030334;28;20554;-77
2021/12/26 02:28:36;;;;;;;43.70;40.00;;;5.80;99.90;;;;;;5105074;27;20436;-76
2021/12/26 02:31:03;;;;;;;43.07;39.50;;;5.80;99.90;;;;;;5134238;27;20463;-76
2021/12/26 02:33:30;;;;;;;41.60;38.30;;;5.80;99.90;;;;;;5132730;27;20448;-76
2021/12/26 02:35:58;;;;;;;42.23;38.60;;;5.80;99.90;;;;;;5129549;27;20573;-76
2021/12/26 02:38:25;;;;;;;41.83;38.63;;;5.80;99.90;;;;;;5132172;27;20962;-76
2021/12/26 02:40:54;;;;;;;40.93;37.87;;;5.80;99.90;;;;;;5132833;27;20450;-76
2021/12/26 02:43:23;;;;;;;42.40;39.30;;;5.90;99.90;;;;;;5133105;27;20454;-77
2021/12/26 02:45:50;;;;;;;43.03;39.37;;;5.90;99.90;;;;;;5132606;27;20450;-75
2021/12/26 02:48:17;;;;;;;41.03;37.83;;;5.90;99.90;;;;;;5133023;27;20439;-76
2021/12/26 02:50:46;;;;;;;43.13;39.60;;;5.90;99.90;;;;;;5132684;27;20961;-76
2021/12/26 02:53:20;;;;;;;42.53;39.13;;;5.80;99.90;;;;;;5132682;27;20468;-76
2021/12/26 02:55:47;;;;;;;43.30;39.70;;;5.70;99.90;;;;;;5132562;27;20490;-77
2021/12/26 02:58:14;;;;;;;43.47;39.90;;;5.70;99.90;;;;;;5132483;27;20462;-77
2021/12/26 03:00:44;;;;;;;44.70;40.70;;;5.70;99.90;;;;;;5132663;27;20460;-77
2021/12/26 03:03:11;;;;;;;41.57;38.33;;;5.70;99.90;;;;;;5132433;27;20498;-76
2021/12/26 03:05:40;;;;;;;44.87;41.17;;;5.70;99.90;;;;;;5132551;27;20472;-77
2021/12/26 03:08:09;;;;;;;43.93;40.10;;;5.60;99.90;;;;;;5132218;27;20483;-77
2021/12/26 03:10:39;;;;;;;44.83;41.03;;;5.60;99.90;;;;;;5132578;27;20472;-77
2021/12/26 03:13:08;;;;;;;42.87;39.50;;;5.70;99.90;;;;;;5132571;27;20542;-77
2021/12/26 03:15:36;;;;;;;43.50;40.00;;;5.70;99.90;;;;;;5128990;27;20476;-77
2021/12/26 03:18:04;;;;;;;46.30;42.23;;;5.70;99.90;;;;;;5131930;27;20787;-77
2021/12/26 03:20:34;;;;;;;42.40;39.00;;;5.60;99.90;;;;;;5131859;27;20439;-78
2021/12/26 03:23:01;;;;;;;43.67;39.83;;;5.60;99.90;;;;;;5132219;27;20460;-79
2021/12/26 03:25:29;;;;;;;42.93;39.53;;;5.70;99.90;;;;;;5132140;27;20443;-79
2021/12/26 03:27:57;;;;;;;45.43;41.73;;;5.70;99.90;;;;;;5131933;27;20721;-78
2021/12/26 03:30:27;;;;;;;44.53;40.63;;;5.70;99.90;;;;;;5131774;27;20480;-78
2021/12/26 03:32:55;;;;;;;41.90;38.60;;;5.70;99.90;;;;;;5131954;27;20455;-78
2021/12/26 03:35:25;;;;;;;42.13;38.77;;;5.80;99.90;;;;;;5131445;27;20491;-79
2021/12/26 03:37:53;;;;;;;43.00;39.50;;;5.80;99.90;;;;;;5132541;27;20460;-79
2021/12/26 03:40:19;;;;;;;44.90;41.40;;;5.70;99.90;;;;;;5132613;27;20475;-79
2021/12/26 03:42:46;;;;;;;44.07;40.37;;;5.70;99.90;;;;;;5132620;27;20558;-79
2021/12/26 03:45:14;;;;;;;45.57;41.73;;;5.70;99.90;;;;;;5132374;27;20497;-76
2021/12/26 03:47:41;;;;;;;44.07;40.57;;;5.70;99.90;;;;;;5132259;27;20963;-76
2021/12/26 03:50:09;;;;;;;42.90;39.53;;;5.70;99.90;;;;;;5132405;27;20498;-76
2021/12/26 03:52:36;;;;;;;43.03;39.73;;;5.70;99.90;;;;;;5132520;27;20458;-76
2021/12/26 03:55:03;;;;;;;44.63;41.03;;;5.60;99.90;;;;;;5132231;27;20488;-76
2021/12/26 03:57:29;;;;;;;44.20;40.37;;;5.70;99.90;;;;;;5132068;27;20454;-76
2021/12/26 03:59:56;;;;;;;42.80;39.40;;;5.70;99.90;;;;;;5131979;27;20455;-76
2021/12/26 04:02:24;;;;;;;41.87;38.33;;;5.70;99.90;;;;;;5132178;27;20452;-77
2021/12/26 04:04:51;;;;;;;42.27;38.83;;;5.70;99.90;;;;;;5131920;27;20963;-76
2021/12/26 04:07:18;;;;;;;44.87;41.17;;;5.70;99.90;;;;;;5132310;27;20449;-76
2021/12/26 04:09:45;;;;;;;43.80;40.17;;;5.60;99.90;;;;;;5132055;27;20450;-76
2021/12/26 04:12:12;;;;;;;43.97;40.40;;;5.60;99.90;;;;;;5132192;27;20795;-77
2021/12/26 04:14:39;;;;;;;43.80;40.30;;;5.60;99.90;;;;;;5132077;27;20450;-76
2021/12/26 04:17:05;;;;;;;44.90;41.17;;;5.70;99.90;;;;;;5131917;27;20480;-77
2021/12/26 04:19:33;;;;;;;44.60;40.80;;;5.70;99.90;;;;;;5132085;27;20469;-76
2021/12/26 04:22:02;;;;;;;44.20;40.27;;;5.70;99.90;;;;;;5131977;27;20453;-77
2021/12/26 04:24:29;;;;;;;45.77;41.90;;;5.80;99.90;;;;;;5131790;27;20450;-76
2021/12/26 04:26:56;;;;;;;45.53;41.13;;;5.60;99.90;;;;;;5132206;27;20442;-77
2021/12/26 04:29:23;;;;;;;46.10;41.80;;;5.70;99.90;;;;;;5131358;27;20485;-77
2021/12/26 04:31:49;;;;;;;44.63;40.60;;;5.70;99.90;;;;;;5131850;27;20448;-77
2021/12/26 04:34:16;;;;;;;45.23;41.10;;;5.70;99.90;;;;;;5131909;27;20452;-76
2021/12/26 04:36:44;;;;;;;48.60;43.70;;;5.70;99.90;;;;;;5131501;27;20885;-75
2021/12/26 04:39:11;;;;;;;44.30;40.50;;;5.70;99.90;;;;;;5131718;27;20830;-78
2021/12/26 04:41:38;;;;;;;46.50;42.27;;;5.80;99.90;;;;;;5131632;28;20464;-78
2021/12/26 04:44:05;;;;;;;46.23;42.07;;;5.70;99.90;;;;;;5131689;27;20455;-78
2021/12/26 04:46:32;;;;;;;45.83;41.90;;;5.60;99.90;;;;;;5133670;27;20954;-78
2021/12/26 04:48:58;;;;;;;47.93;43.40;;;5.60;99.90;;;;;;5135725;27;20454;-78
2021/12/26 04:51:25;;;;;;;46.63;42.27;;;5.70;99.90;;;;;;5135905;27;20451;-78
2021/12/26 04:53:53;;;;;;;45.70;41.70;;;5.80;99.90;;;;;;5135850;27;20454;-78
2021/12/26 04:56:20;;;;;;;43.77;39.97;;;5.80;99.90;;;;;;5135702;27;20482;-78
2021/12/26 04:58:47;;;;;;;46.87;42.50;;;5.80;99.90;;;;;;5135608;27;20953;-75
2021/12/26 05:01:14;;;;;;;45.10;41.20;;;5.80;99.90;;;;;;5135595;27;20448;-76
2021/12/26 05:03:41;;;;;;;45.50;41.37;;;5.70;99.90;;;;;;5135492;27;20453;-76
2021/12/26 05:06:08;;;;;;;45.43;41.13;;;5.70;99.90;;;;;;5135223;27;20449;-77
2021/12/26 05:08:34;;;;;;;44.10;40.10;;;5.70;99.90;;;;;;5135199;27;20451;-76
2021/12/26 05:11:03;;;;;;;43.30;39.60;;;5.70;99.90;;;;;;5135012;27;20453;-79
2021/12/26 05:13:30;;;;;;;43.53;39.60;;;5.60;99.90;;;;;;5135242;27;20442;-79
2021/12/26 05:15:56;;;;;;;44.17;40.17;;;5.70;99.90;;;;;;5134973;27;20488;-78
2021/12/26 05:18:23;;;;;;;45.00;41.17;;;5.80;99.90;;;;;;5135560;27;20443;-78
2021/12/26 05:20:50;;;;;;;44.37;40.33;;;5.70;99.90;;;;;;5135303;27;20456;-77
2021/12/26 05:23:16;;;;;;;43.97;40.27;;;5.80;99.90;;;;;;5135781;27;20853;-82
2021/12/26 05:25:43;;;;;;;45.20;41.03;;;5.80;99.90;;;;;;5135622;27;20445;-82
2021/12/26 05:28:11;;;;;;;44.03;40.10;;;5.80;99.90;;;;;;5137770;27;20451;-90
2021/12/26 05:30:38;;;;;;;42.43;38.60;;;5.80;99.90;;;;;;5145582;27;20469;-87
2021/12/26 05:33:05;;;;;;;43.47;39.77;;;5.80;99.90;;;;;;5140661;27;20451;-89
2021/12/26 05:35:32;;;;;;;43.83;40.10;;;5.80;99.90;;;;;;5141142;27;20489;-77
2021/12/26 05:37:59;;;;;;;43.50;39.70;;;5.90;99.90;;;;;;5134970;27;20538;-79
2021/12/26 05:40:26;;;;;;;45.20;40.97;;;5.90;99.90;;;;;;5134844;27;20444;-80
2021/12/26 05:42:53;;;;;;;45.43;41.07;;;5.90;99.90;;;;;;5134962;27;20455;-81
2021/12/26 05:45:22;;;;;;;43.50;40.00;;;6.00;99.90;;;;;;5135188;27;20449;-81
2021/12/26 05:47:48;;;;;;;45.40;41.50;;;6.10;99.90;;;;;;5134989;27;20447;-81
2021/12/26 05:50:19;;;;;;;45.03;40.93;;;6.10;99.90;;;;;;5135382;27;20772;-84
2021/12/26 05:52:46;;;;;;;44.93;40.97;;;6.10;99.90;;;;;;5135043;27;20461;-87
2021/12/26 05:55:12;;;;;;;44.87;40.57;;;6.10;99.90;;;;;;5135252;27;20796;-81
2021/12/26 05:57:39;;;;;;;46.10;42.13;;;6.20;99.90;;;;;;5133890;27;20947;-77
2021/12/26 06:00:09;;;;;;;42.03;38.27;;;6.10;99.90;;;;;;5134253;27;20447;-77
2021/12/26 06:02:37;;;;;;;46.50;41.90;;;6.10;99.90;;;;;;5134521;27;20448;-77
2021/12/26 06:05:05;;;;;;;46.30;42.20;;;6.10;99.90;;;;;;5134479;27;20466;-77
2021/12/26 06:07:32;;;;;;;43.73;39.70;;;6.10;99.90;;;;;;5134523;27;20447;-81
2021/12/26 06:09:58;;;;;;;45.03;40.90;;;6.10;99.90;;;;;;5134211;27;20444;-81
2021/12/26 06:12:25;;;;;;;45.53;41.40;;;6.20;99.90;;;;;;5134467;27;20830;-82
2021/12/26 06:14:52;;;;;;;41.87;38.17;;;6.20;99.90;;;;;;5134639;27;20451;-82
2021/12/26 06:17:18;;;;;;;42.93;38.97;;;6.20;99.90;;;;;;5134094;27;20835;-81
2021/12/26 06:19:46;;;;;;;44.40;40.10;;;6.20;99.90;;;;;;5134570;27;20448;-82
2021/12/26 06:22:13;;;;;;;44.40;40.40;;;6.20;99.90;;;;;;5133901;27;20508;-79
2021/12/26 06:24:40;;;;;;;43.33;39.50;;;6.10;99.90;;;;;;5134234;27;20459;-80
2021/12/26 06:27:06;;;;;;;44.50;40.67;;;6.10;99.90;;;;;;5133939;27;20440;-80
2021/12/26 06:29:33;;;;;;;44.30;40.17;;;6.20;99.90;;;;;;5133907;27;20486;-79
2021/12/26 06:32:00;;;;;;;44.40;40.57;;;6.10;99.90;;;;;;5134151;27;20439;-80
2021/12/26 06:34:27;;;;;;;43.10;39.13;;;6.10;99.90;;;;;;5133930;27;20523;-80
2021/12/26 06:36:55;;;;;;;43.93;40.00;;;6.10;99.90;;;;;;5133805;27;20495;-79
2021/12/26 06:39:21;;;;;;;41.83;38.10;;;6.20;99.90;;;;;;5133875;27;20946;-79
2021/12/26 06:41:48;;;;;;;45.27;41.27;;;6.10;99.90;;;;;;5134307;27;20500;-84
2021/12/26 06:44:15;;;;;;;46.50;42.30;;;6.20;99.90;;;;;;5134312;27;20447;-83
2021/12/26 06:46:43;;;;;;;44.50;40.50;;;6.30;99.90;;;;;;5133524;27;20452;-83
2021/12/26 06:49:09;;;;;;;46.10;41.27;;;6.10;99.90;;;;;;5133406;27;20452;-84
2021/12/26 06:51:36;;;;;;;44.17;40.27;;;6.20;99.90;;;;;;5134315;27;20452;-83
2021/12/26 06:54:04;;;;;;;44.80;40.70;;;6.20;99.90;;;;;;5134284;27;20568;-84
2021/12/26 06:56:31;;;;;;;45.57;41.20;;;6.10;99.90;;;;;;5133766;27;20861;-83
2021/12/26 06:58:57;;;;;;;43.67;39.80;;;6.10;99.90;;;;;;5134012;27;20453;-84
2021/12/26 07:01:24;;;;;;;48.20;43.70;;;6.20;99.90;;;;;;5133781;27;20503;-83
2021/12/26 07:03:53;;;;;;;44.33;40.40;;;6.30;99.90;;;;;;5133675;27;20454;-84
2021/12/26 07:06:20;;;;;;;49.17;44.30;;;6.20;99.90;;;;;;5134085;27;20449;-84
2021/12/26 07:08:47;;;;;;;45.10;40.73;;;6.30;99.90;;;;;;5133563;27;20824;-83
2021/12/26 07:11:17;;;;;;;48.50;43.57;;;6.30;99.90;;;;;;5133061;27;20457;-82
2021/12/26 07:13:43;;;;;;;48.20;43.03;;;6.20;99.90;;;;;;5133194;27;20454;-79
2021/12/26 07:16:10;;;;;;;45.87;41.23;;;6.20;99.90;;;;;;5132845;27;20505;-79
2021/12/26 07:18:37;;;;;;;46.40;42.13;;;6.20;99.90;;;;;;5133044;27;20449;-79
2021/12/26 07:21:04;;;;;;;47.17;42.67;;;6.20;99.90;;;;;;5133099;27;20448;-79
2021/12/26 07:23:30;;;;;;;46.40;42.10;;;6.20;99.90;;;;;;5133256;27;20451;-82
2021/12/26 07:25:57;;;;;;;48.73;43.80;;;6.20;99.90;;;;;;5133042;27;20485;-82
2021/12/26 07:28:25;;;;;;;47.43;42.93;;;6.20;99.90;;;;;;5133149;27;20514;-82
2021/12/26 07:30:52;;;;;;;46.67;42.17;;;6.20;99.90;;;;;;5132853;27;20483;-82
2021/12/26 07:33:19;;;;;;;46.90;42.70;;;6.20;99.90;;;;;;5133263;27;20524;-83
2021/12/26 07:35:45;;;;;;;45.77;41.63;;;6.30;99.90;;;;;;5132527;27;20468;-80
2021/12/26 07:38:12;;;;;;;48.73;44.03;;;6.30;99.90;;;;;;5132557;27;20486;-82
2021/12/26 07:40:39;;;;;;;45.83;41.63;;;6.30;99.90;;;;;;5132764;27;20937;-82
2021/12/26 07:43:05;;;;;;;47.80;43.03;;;6.40;99.90;;;;;;5132982;27;20455;-80
2021/12/26 07:45:33;;;;;;;45.97;41.57;;;6.40;99.90;;;;;;5133041;27;20466;-81
2021/12/26 07:48:00;;;;;;;47.60;43.23;;;6.40;99.90;;;;;;5132653;27;20451;-81
2021/12/26 07:50:27;;;;;;;45.37;41.00;;;6.40;99.90;;;;;;5132594;27;20450;-80
2021/12/26 07:52:54;;;;;;;42.93;39.13;;;6.40;99.90;;;;;;5132457;27;20452;-81
2021/12/26 07:55:22;;;;;;;48.33;43.83;;;6.50;99.90;;;;;;5132111;27;20832;-84
2021/12/26 07:57:49;;;;;;;43.77;39.57;;;6.50;99.90;;;;;;5120905;27;20844;-85
2021/12/26 08:00:18;;;;;;;44.53;40.43;;;6.60;99.90;;;;;;5120887;27;20466;-83
2021/12/26 08:02:47;;;;;;;46.40;41.70;;;6.60;99.90;;;;;;5120081;27;20455;-85
2021/12/26 08:05:14;;;;;;;44.90;40.60;;;6.70;99.90;;;;;;5120947;27;20452;-78
2021/12/26 08:07:41;;;;;;;47.63;43.23;;;6.60;99.90;;;;;;5121492;27;20443;-77
2021/12/26 08:10:09;;;;;;;45.10;40.83;;;6.70;99.90;;;;;;5119997;27;20800;-79
2021/12/26 08:12:36;;;;;;;46.17;41.77;;;6.80;99.90;;;;;;5120051;27;20436;-79
2021/12/26 08:15:04;;;;;;;48.30;44.13;;;6.80;99.90;;;;;;5121625;27;20440;-80
2021/12/26 08:17:31;;;;;;;46.67;42.23;;;6.80;99.90;;;;;;5116301;27;20518;-80
2021/12/26 08:20:00;;;;;;;48.33;44.07;;;6.80;99.90;;;;;;5111438;28;20457;-87
2021/12/26 08:22:27;;;;;;;47.07;42.60;;;6.90;99.90;;;;;;5111697;28;20453;-82
2021/12/26 08:24:53;;;;;;;45.87;41.67;;;6.90;99.90;;;;;;5111539;28;20453;-82
2021/12/26 08:27:20;;;;;;;47.70;43.33;;;6.90;99.90;;;;;;5111604;28;20994;-82
2021/12/26 08:29:47;;;;;;;46.37;42.27;;;6.90;99.90;;;;;;5122030;27;20476;-80
2021/12/26 08:32:17;;;;;;;47.63;43.20;;;7.00;99.90;;;;;;5131699;27;20447;-81
2021/12/26 08:34:44;;;;;;;46.00;41.90;;;7.10;99.90;;;;;;5131820;27;20491;-80
2021/12/26 08:37:13;;;;;;;46.77;42.10;;;7.10;99.90;;;;;;5131537;28;20994;-79
2021/12/26 08:39:43;;;;;;;48.07;43.67;;;7.20;99.90;;;;;;5132204;27;20467;-81
2021/12/26 08:42:11;;;;;;;46.50;42.50;;;7.20;99.90;;;;;;5132171;27;20582;-80
2021/12/26 08:44:38;;;;;;;47.00;42.50;;;7.30;99.90;;;;;;5131669;27;20941;-80
2021/12/26 08:47:07;;;;;;;44.90;41.20;;;7.40;99.90;;;;;;5131840;28;20843;-80
2021/12/26 08:49:34;;;;;;;42.57;39.07;;;7.50;99.90;;;;;;5132351;27;20911;-80
2021/12/26 08:52:01;;;;;;;46.53;42.37;;;7.40;99.90;;;;;;5131670;27;20929;-80
2021/12/26 08:54:30;;;;;;;46.80;42.23;;;7.40;99.90;;;;;;5131895;28;20444;-80
2021/12/26 08:56:59;;;;;;;45.17;41.17;;;7.30;99.90;;;;;;5132081;28;20488;-83
2021/12/26 08:59:30;;;;;;;44.03;40.17;;;7.50;99.90;;;;;;5131969;27;20482;-81
2021/12/26 09:01:57;;;;;;;43.97;39.87;;;7.60;99.90;;;;;;5131476;27;20481;-80
2021/12/26 09:04:24;;;;;;;44.50;40.20;;;7.60;99.90;;;;;;5131795;28;20530;-84
2021/12/26 09:06:50;;;;;;;42.00;38.40;;;7.60;99.90;;;;;;5132100;27;20439;-86
2021/12/26 09:09:17;;;;;;;40.33;36.80;;;7.70;99.90;;;;;;5132149;27;20463;-87
2021/12/26 09:11:45;;;;;;;40.47;36.97;;;7.60;99.90;;;;;;5134062;27;20444;-87
2021/12/26 09:14:12;;;;;;;40.97;37.37;;;7.60;99.90;;;;;;5134068;27;21092;-88
2021/12/26 09:16:38;;;;;;;43.17;38.83;;;7.70;99.90;;;;;;5135741;27;20451;-86
2021/12/26 09:19:06;;;;;;;38.57;35.07;;;7.60;99.90;;;;;;5132298;27;20823;-86
2021/12/26 09:21:33;;;;;;;38.60;35.33;;;7.50;99.90;;;;;;5132250;28;20498;-84
2021/12/26 09:24:00;;;;;;;37.27;33.67;;;7.70;99.90;;;;;;5133257;27;20452;-78
2021/12/26 09:26:26;;;;;;;36.57;33.23;;;7.60;99.90;;;;;;5131840;28;20452;-78
2021/12/26 09:28:54;;;;;;;36.60;33.20;;;7.50;99.90;;;;;;5130692;28;20441;-82
2021/12/26 09:31:21;;;;;;;35.47;32.40;;;7.50;99.90;;;;;;5131298;27;20475;-78
2021/12/26 09:33:48;;;;;;;34.80;31.67;;;7.40;99.90;;;;;;5136762;27;20471;-88
2021/12/26 09:36:15;;;;;;;35.03;31.90;;;7.30;99.90;;;;;;5135773;27;20961;-87
2021/12/26 09:38:41;;;;;;;34.90;31.70;;;7.30;99.90;;;;;;5135392;27;20487;-86
2021/12/26 09:41:09;;;;;;;35.90;32.47;;;7.40;99.90;;;;;;5135373;27;20448;-87
2021/12/26 09:43:36;;;;;;;35.77;32.17;;;7.30;99.90;;;;;;5135650;27;20448;-86
2021/12/26 09:46:04;;;;;;;36.07;32.57;;;7.40;99.90;;;;;;5136117;27;20451;-88
2021/12/26 09:48:30;;;;;;;34.40;31.23;;;7.40;99.90;;;;;;5135748;27;20451;-86
2021/12/26 09:50:57;;;;;;;34.47;31.23;;;7.40;99.90;;;;;;5135508;27;20451;-87
2021/12/26 09:53:24;;;;;;;35.30;32.10;;;7.60;99.90;;;;;;5135713;27;20454;-85
2021/12/26 09:55:51;;;;;;;33.77;30.67;;;7.90;99.90;;;;;;5135309;27;20523;-84
2021/12/26 09:58:18;;;;;;;31.50;28.70;;;8.10;99.90;;;;;;5135970;27;20480;-83
2021/12/26 10:00:46;;;;;;;33.63;30.43;;;8.00;99.90;;;;;;5135352;27;20452;-83
2021/12/26 10:03:18;;;;;;;31.47;28.80;;;8.00;99.90;;;;;;5135136;27;20790;-83
2021/12/26 10:06:03;;;;;;;30.53;27.93;;;8.10;99.90;;;;;;5134840;27;20471;-82
2021/12/26 10:08:32;;;;;;;28.83;26.37;;;8.00;99.90;;;;;;5134732;27;20944;-83
2021/12/26 10:11:12;;;;;;;26.37;24.43;;;8.00;99.90;;;;;;5134593;27;20456;-83
2021/12/26 10:13:41;;;;;;;26.70;24.47;;;8.00;99.90;;;;;;5134936;27;20505;-81
2021/12/26 10:16:08;;;;;;;26.50;24.43;;;7.90;99.90;;;;;;5134258;27;20814;-82
2021/12/26 10:18:39;;;;;;;27.07;25.00;;;7.90;99.90;;;;;;5134436;27;20480;-83
2021/12/26 10:21:24;;;;;;;26.40;24.30;;;7.80;99.90;;;;;;5135043;27;20488;-84
2021/12/26 10:23:51;;;;;;;27.57;25.33;;;7.80;99.90;;;;;;5134937;27;20447;-83
2021/12/26 10:26:20;;;;;;;26.97;24.87;;;7.90;99.90;;;;;;5135785;27;20448;-85
2021/12/26 10:29:22;;;;;;;27.43;25.30;;;7.90;99.90;;;;;;5134900;27;20482;-86
2021/12/26 10:31:59;;;;;;;26.17;24.10;;;7.90;99.90;;;;;;5129993;27;20467;-85
2021/12/26 10:34:31;;;;;;;25.10;23.10;;;8.10;99.90;;;;;;5120238;27;20473;-84
2021/12/26 10:37:00;;;;;;;25.70;23.67;;;8.30;99.90;;;;;;5129564;27;20449;-86
2021/12/26 10:39:30;;;;;;;23.80;21.97;;;8.20;99.90;;;;;;5114593;28;20488;-84
2021/12/26 10:41:59;;;;;;;25.27;23.30;;;8.20;99.90;;;;;;5124937;27;20826;-82
2021/12/26 10:44:30;;;;;;;24.73;22.87;;;8.30;99.90;;;;;;5134038;27;21096;-83
2021/12/26 10:46:59;;;;;;;23.63;22.00;;;8.40;99.90;;;;;;5134289;27;20441;-81
2021/12/26 10:49:49;;;;;;;22.83;21.13;;;8.30;99.90;;;;;;5131313;27;20776;-80
2021/12/26 10:52:21;;;;;;;22.30;20.70;;;8.30;99.90;;;;;;5108382;28;20472;-80
2021/12/26 10:54:54;;;;;;;21.47;19.97;;;8.10;99.90;;;;;;5112760;28;20453;-80
2021/12/26 10:57:25;;;;;;;22.10;20.40;;;8.00;99.90;;;;;;5112561;28;20481;-80
2021/12/26 11:00:11;;;;;;;21.17;19.53;;;8.20;99.90;;;;;;5112291;28;20445;-79
2021/12/26 11:02:40;;;;;;;21.30;19.70;;;8.20;99.90;;;;;;5112231;28;20456;-80
2021/12/26 11:05:10;;;;;;;22.43;20.73;;;8.30;99.90;;;;;;5112322;28;20554;-80
2021/12/26 11:07:51;;;;;;;20.10;18.70;;;8.50;99.90;;;;;;5129533;27;20468;-77
2021/12/26 11:10:22;;;;;;;19.17;17.97;;;8.50;99.90;;;;;;5133067;27;20446;-81
2021/12/26 11:12:51;;;;;;;19.63;18.00;;;8.60;99.90;;;;;;5133642;27;20451;-80
2021/12/26 11:15:19;;;;;;;17.80;16.43;;;8.60;99.90;;;;;;5148105;27;20475;-80
2021/12/26 11:17:49;;;;;;;18.83;17.53;;;8.40;99.90;;;;;;5155517;27;20524;-80
2021/12/26 11:20:29;;;;;;;20.77;19.13;;;8.40;99.90;;;;;;5143165;27;20841;-81
2021/12/26 11:22:58;;;;;;;17.60;16.57;;;8.30;99.90;;;;;;5130721;27;20791;-80
2021/12/26 11:25:26;;;;;;;18.17;17.07;;;8.20;99.90;;;;;;5132145;27;20460;-81
2021/12/26 11:27:52;;;;;;;20.17;18.87;;;8.20;99.90;;;;;;5132862;27;20780;-80
2021/12/26 11:30:21;;;;;;;18.33;17.23;;;8.30;99.90;;;;;;5132355;27;20476;-79
2021/12/26 11:32:48;;;;;;;19.70;18.40;;;8.30;99.90;;;;;;5132292;27;20448;-79
2021/12/26 11:35:15;;;;;;;19.30;17.93;;;8.50;99.90;;;;;;5132453;27;20850;-79
2021/12/26 11:37:42;;;;;;;18.90;17.70;;;8.70;99.90;;;;;;5132127;27;20545;-78
2021/12/26 11:40:14;;;;;;;18.00;16.80;;;9.00;99.90;;;;;;5132319;27;20854;-78
2021/12/26 11:43:21;;;;;;;19.47;18.07;;;9.10;99.90;;;;;;5131953;27;20797;-78
2021/12/26 11:46:00;;;;;;;18.67;17.37;;;9.20;99.90;;;;;;5132059;27;20440;-78
2021/12/26 11:48:59;;;;;;;20.60;19.17;;;9.20;99.90;;;;;;5131871;27;20527;-78
2021/12/26 11:51:52;;;;;;;18.87;17.67;;;9.20;99.90;;;;;;5131896;27;20444;-79
2021/12/26 11:54:37;;;;;;;17.30;16.23;;;9.40;99.90;;;;;;5132164;27;20849;-79
2021/12/26 11:57:18;;;;;;;17.27;16.17;;;10.20;99.90;;;;;;5131558;27;20486;-79
2021/12/26 12:00:05;;;;;;;16.70;15.70;;;11.30;99.90;;;;;;5132165;27;20841;-80
2021/12/26 12:02:38;;;;;;;14.53;13.73;;;12.40;99.90;;;;;;5131970;27;20544;-80
2021/12/26 12:05:11;;;;;;;16.17;15.27;;;13.30;99.90;;;;;;5132072;27;20972;-79
2021/12/26 12:07:54;;;;;;;16.30;15.40;;;13.70;99.90;;;;;;5131443;27;20815;-80
2021/12/26 12:10:37;;;;;;;16.13;15.23;;;14.60;99.90;;;;;;5132032;27;20459;-81
2021/12/26 12:13:06;;;;;;;15.70;14.73;;;15.00;99.90;;;;;;5131866;27;20445;-80
2021/12/26 12:15:45;;;;;;;16.57;15.30;;;15.10;99.90;;;;;;5131840;27;20456;-79
2021/12/26 12:18:13;;;;;;;14.60;13.80;;;14.10;99.90;;;;;;5131723;27;20483;-79
2021/12/26 12:20:40;;;;;;;16.57;15.63;;;13.80;99.90;;;;;;5131436;27;20449;-81
2021/12/26 12:23:20;;;;;;;15.00;14.20;;;13.10;99.90;;;;;;5131845;27;20452;-80
2021/12/26 12:25:52;;;;;;;16.23;15.40;;;12.40;99.90;;;;;;5131655;27;20844;-79
2021/12/26 12:28:30;;;;;;;15.37;14.50;;;12.00;99.90;;;;;;5131899;27;20445;-79
2021/12/26 12:31:15;;;;;;;15.50;14.70;;;11.90;99.90;;;;;;5131568;27;20475;-77
2021/12/26 12:33:42;;;;;;;16.10;14.90;;;11.40;99.90;;;;;;5131263;27;20448;-79
2021/12/26 12:36:12;;;;;;;16.13;15.13;;;11.40;99.90;;;;;;5131386;27;21086;-80
2021/12/26 12:38:42;;;;;;;17.10;16.20;;;11.20;99.90;;;;;;5131015;27;20495;-79
2021/12/26 12:41:29;;;;;;;16.33;15.37;;;11.10;99.90;;;;;;5131494;27;20448;-79
2021/12/26 12:43:59;;;;;;;16.10;15.20;;;11.30;99.90;;;;;;5131285;27;20440;-80
2021/12/26 12:46:26;;;;;;;16.37;15.47;;;11.00;99.90;;;;;;5131061;27;21002;-76
2021/12/26 12:49:04;;;;;;;17.30;16.40;;;10.80;99.90;;;;;;5131406;27;20933;-76